Time;durP1;ratioP1;P1;durP2;ratioP2;P2;SDS_P1;SDS_P2;PMS_P1;PMS_P2;Temp;Humidity;BMP_temperature;BMP_pressure;BME280_temperature;BME280_humidity;BME280_pressure;Samples;Min_cycle;Max_cycle;Signal;HPM_P1;HPM_P2
2022/11/26 00:01:26;;;;;;;41.00;11.93;;;;;;;5.29;100.00;101869.66;7388334;19;20783;-58
2022/11/26 00:04:01;;;;;;;35.83;13.43;;;;;;;5.34;100.00;101866.69;7391666;19;20398;-58
2022/11/26 00:06:34;;;;;;;27.30;11.50;;;;;;;5.23;100.00;101878.63;7389770;19;20444;-59
2022/11/26 00:09:04;;;;;;;26.50;10.63;;;;;;;5.17;100.00;101887.47;7390556;19;20742;-59
2022/11/26 00:11:36;;;;;;;31.60;12.60;;;;;;;5.08;100.00;101879.94;7387900;19;20794;-60
2022/11/26 00:14:13;;;;;;;36.00;10.90;;;;;;;4.98;100.00;101897.06;7391567;19;20426;-60
2022/11/26 00:16:43;;;;;;;24.53;11.37;;;;;;;4.94;100.00;101900.16;7390150;19;20416;-56
2022/11/26 00:19:12;;;;;;;23.70;10.77;;;;;;;4.87;100.00;101902.94;7390782;19;20394;-60
2022/11/26 00:21:43;;;;;;;34.50;12.40;;;;;;;4.93;100.00;101913.69;7387364;19;20429;-62
2022/11/26 00:24:25;;;;;;;31.53;12.53;;;;;;;4.99;100.00;101915.88;7390752;19;20368;-60
2022/11/26 00:26:59;;;;;;;28.73;12.10;;;;;;;4.94;100.00;101912.94;7388736;19;20420;-61
2022/11/26 00:29:28;;;;;;;28.47;11.47;;;;;;;4.85;100.00;101915.63;7390892;19;20385;-60
2022/11/26 00:31:58;;;;;;;31.00;11.90;;;;;;;4.86;100.00;101916.50;7389776;19;20419;-59
2022/11/26 00:34:27;;;;;;;30.70;11.57;;;;;;;4.83;100.00;101921.38;7390895;19;20384;-61
2022/11/26 00:36:57;;;;;;;24.87;11.73;;;;;;;4.80;100.00;101910.88;7390664;19;20452;-60
2022/11/26 00:39:26;;;;;;;33.43;12.07;;;;;;;4.75;100.00;101922.38;7390749;19;20397;-60
2022/11/26 00:41:58;;;;;;;35.97;12.30;;;;;;;4.77;100.00;101915.75;7387558;19;20421;-60
2022/11/26 00:44:27;;;;;;;31.23;13.47;;;;;;;4.83;100.00;101922.25;7391336;19;20400;-61
2022/11/26 00:46:57;;;;;;;33.00;12.17;;;;;;;4.82;100.00;101914.47;7388877;19;20451;-61
2022/11/26 00:49:27;;;;;;;40.87;14.30;;;;;;;4.71;100.00;101916.13;7390463;19;20396;-61
2022/11/26 00:51:57;;;;;;;29.60;12.50;;;;;;;4.69;100.00;101913.47;7387697;19;20419;-61
2022/11/26 00:54:26;;;;;;;38.27;12.10;;;;;;;4.66;100.00;101928.53;7391314;19;20404;-60
2022/11/26 00:56:58;;;;;;;30.90;12.47;;;;;;;4.59;100.00;101928.78;7388049;19;20428;-60
2022/11/26 00:59:28;;;;;;;38.57;13.70;;;;;;;4.57;100.00;101928.63;7389944;19;20396;-61
2022/11/26 01:01:57;;;;;;;34.83;12.00;;;;;;;4.55;100.00;101930.19;7389008;19;20430;-61
2022/11/26 01:04:27;;;;;;;28.07;11.47;;;;;;;4.53;100.00;101938.47;7391668;19;20393;-56
2022/11/26 01:06:56;;;;;;;31.80;12.60;;;;;;;4.48;100.00;101938.09;7386366;19;20955;-61
2022/11/26 01:09:25;;;;;;;34.93;12.23;;;;;;;4.53;100.00;101944.50;7390993;19;20395;-60
2022/11/26 01:11:58;;;;;;;34.53;12.63;;;;;;;4.54;100.00;101942.81;7387611;19;20841;-60
2022/11/26 01:14:28;;;;;;;36.77;13.23;;;;;;;4.57;100.00;101938.84;7390326;19;20930;-60
2022/11/26 01:16:58;;;;;;;33.73;13.30;;;;;;;4.51;100.00;101947.69;7388853;19;20980;-60
2022/11/26 01:19:28;;;;;;;31.47;13.00;;;;;;;4.52;100.00;101950.34;7391147;19;20408;-61
2022/11/26 01:21:57;;;;;;;43.03;12.70;;;;;;;4.47;100.00;101951.63;7387742;19;20403;-61
2022/11/26 01:24:26;;;;;;;32.57;12.60;;;;;;;4.43;100.00;101953.03;7391142;19;20409;-59
2022/11/26 01:26:58;;;;;;;37.80;14.30;;;;;;;4.45;100.00;101953.16;7388637;19;20416;-60
2022/11/26 01:29:28;;;;;;;24.10;11.23;;;;;;;4.57;100.00;101959.31;7390286;19;20399;-60
2022/11/26 01:31:57;;;;;;;27.40;12.33;;;;;;;4.44;100.00;101952.28;7386301;19;20426;-58
2022/11/26 01:34:27;;;;;;;34.43;13.70;;;;;;;4.38;100.00;101961.06;7390437;19;20410;-61
2022/11/26 01:36:56;;;;;;;35.43;12.90;;;;;;;4.34;100.00;101965.00;7384640;19;20442;-58
2022/11/26 01:39:26;;;;;;;39.97;12.00;;;;;;;4.36;100.00;101973.69;7389662;19;20388;-58
2022/11/26 01:42:05;;;;;;;42.20;11.87;;;;;;;4.36;100.00;101972.81;7386874;19;20435;-59
2022/11/26 01:44:36;;;;;;;25.17;11.20;;;;;;;4.36;100.00;101983.03;7391132;19;20391;-54
2022/11/26 01:47:21;;;;;;;40.53;12.73;;;;;;;4.32;100.00;101981.88;7387480;19;20434;-60
2022/11/26 01:50:21;;;;;;;31.93;11.87;;;;;;;4.22;100.00;101982.75;7389748;19;20403;-59
2022/11/26 01:52:51;;;;;;;28.83;12.43;;;;;;;4.23;100.00;101988.72;7388017;19;20411;-55
2022/11/26 01:55:21;;;;;;;35.17;11.87;;;;;;;4.22;100.00;101989.50;7390065;19;20383;-58
2022/11/26 01:57:53;;;;;;;56.83;13.43;;;;;;;4.28;100.00;101992.59;7387879;19;20407;-58
2022/11/26 02:00:22;;;;;;;37.53;14.80;;;;;;;4.29;100.00;101991.81;7395678;19;20458;-56
2022/11/26 02:02:52;;;;;;;34.47;13.40;;;;;;;4.29;100.00;101986.69;7395025;19;20913;-60
2022/11/26 02:05:26;;;;;;;30.17;13.17;;;;;;;4.22;100.00;101985.28;7397843;19;20403;-58
2022/11/26 02:07:56;;;;;;;48.93;16.80;;;;;;;4.26;100.00;101986.44;7395293;19;20419;-61
2022/11/26 02:10:25;;;;;;;38.50;12.63;;;;;;;4.16;100.00;101993.28;7392877;19;20439;-58
2022/11/26 02:12:57;;;;;;;37.47;12.93;;;;;;;4.13;100.00;101993.03;7399046;19;20435;-58
2022/11/26 02:15:30;;;;;;;29.57;12.50;;;;;;;4.10;100.00;101989.31;7397434;19;20387;-57
2022/11/26 02:18:04;;;;;;;33.97;13.37;;;;;;;4.12;100.00;101993.81;7396823;19;21279;-58
2022/11/26 02:20:48;;;;;;;29.03;12.80;;;;;;;4.16;100.00;102000.09;7394608;19;20419;-59
2022/11/26 02:23:38;;;;;;;35.93;12.60;;;;;;;4.09;100.00;101993.53;7398126;19;20380;-61
2022/11/26 02:26:24;;;;;;;43.97;14.17;;;;;;;4.09;100.00;101998.63;7395825;19;20403;-58
2022/11/26 02:29:05;;;;;;;36.07;12.93;;;;;;;4.13;100.00;101995.59;7397600;19;20397;-56
2022/11/26 02:31:42;;;;;;;39.67;13.30;;;;;;;4.08;100.00;101998.50;7393890;19;20895;-57
2022/11/26 02:34:19;;;;;;;43.97;12.27;;;;;;;4.04;100.00;102005.00;7401685;19;20944;-60
2022/11/26 02:36:52;;;;;;;38.50;13.30;;;;;;;4.05;100.00;102001.66;7393806;19;20410;-56
2022/11/26 02:39:23;;;;;;;34.67;13.17;;;;;;;4.01;100.00;102004.75;7397330;19;21011;-58
2022/11/26 02:41:55;;;;;;;36.20;13.00;;;;;;;4.02;100.00;102012.53;7393550;19;20398;-56
2022/11/26 02:44:26;;;;;;;29.70;13.33;;;;;;;4.00;100.00;102013.16;7397412;19;20415;-58
2022/11/26 02:47:01;;;;;;;35.43;12.63;;;;;;;3.98;100.00;102014.66;7395352;19;20996;-58
2022/11/26 02:49:30;;;;;;;37.70;13.80;;;;;;;4.02;100.00;102009.06;7396492;19;20422;-60
2022/11/26 02:52:01;;;;;;;40.00;13.37;;;;;;;4.00;100.00;102008.94;7393729;19;20403;-60
2022/11/26 02:54:31;;;;;;;30.53;13.30;;;;;;;4.07;100.00;102007.84;7397215;19;20384;-60
2022/11/26 02:57:02;;;;;;;30.83;13.90;;;;;;;3.99;100.00;102016.47;7394876;19;20419;-57
2022/11/26 02:59:32;;;;;;;34.23;13.20;;;;;;;3.98;100.00;102009.56;7395907;19;20746;-58
2022/11/26 03:02:07;;;;;;;39.20;14.50;;;;;;;4.01;100.00;102007.28;7394909;19;20414;-61
2022/11/26 03:04:39;;;;;;;37.13;12.93;;;;;;;3.92;100.00;102004.81;7397259;19;20391;-61
2022/11/26 03:07:11;;;;;;;40.40;13.73;;;;;;;3.95;100.00;102004.19;7393881;19;20988;-61
2022/11/26 03:09:42;;;;;;;34.10;13.70;;;;;;;3.97;100.00;102007.78;7395115;19;20463;-60
2022/11/26 03:12:11;;;;;;;38.17;14.27;;;;;;;3.92;100.00;102015.94;7393996;19;20430;-61
2022/11/26 03:14:41;;;;;;;30.77;13.00;;;;;;;3.90;100.00;102012.31;7396435;19;20938;-61
2022/11/26 03:17:13;;;;;;;40.23;13.67;;;;;;;3.87;100.00;102022.28;7392445;19;20427;-60
2022/11/26 03:19:42;;;;;;;34.57;13.27;;;;;;;3.85;100.00;102025.47;7395568;19;20403;-62
2022/11/26 03:22:12;;;;;;;38.53;13.60;;;;;;;3.78;100.00;102021.44;7393834;19;20941;-60
2022/11/26 03:24:42;;;;;;;43.27;12.00;;;;;;;3.84;100.00;102032.22;7397331;19;20399;-61
2022/11/26 03:27:11;;;;;;;29.43;12.40;;;;;;;3.84;100.00;102039.88;7394176;19;20423;-60
2022/11/26 03:29:41;;;;;;;38.23;13.30;;;;;;;3.81;100.00;102041.25;7395024;19;20419;-62
2022/11/26 03:32:13;;;;;;;28.73;12.80;;;;;;;3.78;100.00;102036.78;7393650;19;20983;-60
2022/11/26 03:34:42;;;;;;;26.93;12.13;;;;;;;3.76;100.00;102038.28;7395448;19;20383;-60
2022/11/26 03:37:11;;;;;;;32.77;12.73;;;;;;;3.76;100.00;102040.84;7388298;19;20453;-61
2022/11/26 03:39:41;;;;;;;32.00;12.23;;;;;;;3.76;100.00;102044.28;7394454;19;20400;-61
2022/11/26 03:42:10;;;;;;;28.90;11.30;;;;;;;3.79;100.00;102048.78;7393801;19;20430;-61
2022/11/26 03:44:40;;;;;;;31.57;12.07;;;;;;;3.75;100.00;102051.81;7395325;19;20423;-61
2022/11/26 03:47:12;;;;;;;29.47;11.87;;;;;;;3.76;100.00;102048.50;7393368;19;20450;-60
2022/11/26 03:49:42;;;;;;;44.43;13.07;;;;;;;3.72;100.00;102042.22;7394508;19;20939;-59
2022/11/26 03:52:11;;;;;;;37.10;11.33;;;;;;;3.71;100.00;102045.53;7393347;19;20411;-60
2022/11/26 03:54:41;;;;;;;31.90;12.80;;;;;;;3.67;100.00;102053.69;7394902;19;20776;-62
2022/11/26 03:57:10;;;;;;;37.90;12.23;;;;;;;3.70;100.00;102050.50;7391865;19;20460;-60
2022/11/26 03:59:40;;;;;;;33.97;11.87;;;;;;;3.70;100.00;102050.50;7393734;19;20400;-61
2022/11/26 04:02:12;;;;;;;62.83;12.40;;;;;;;3.74;100.00;102050.03;7392907;19;20422;-61
2022/11/26 04:04:42;;;;;;;32.90;12.53;;;;;;;3.70;100.00;102042.84;7394841;19;20940;-61
2022/11/26 04:07:11;;;;;;;52.47;12.50;;;;;;;3.71;100.00;102045.53;7392529;19;20427;-60
2022/11/26 04:09:41;;;;;;;51.97;14.30;;;;;;;3.70;100.00;102047.97;7394106;19;20411;-61
2022/11/26 04:12:10;;;;;;;93.43;13.00;;;;;;;3.64;100.00;102048.31;7392228;19;20419;-61
2022/11/26 04:14:40;;;;;;;62.13;12.90;;;;;;;3.61;100.00;102059.13;7394032;19;20921;-60
2022/11/26 04:17:12;;;;;;;34.13;12.43;;;;;;;3.54;100.00;102053.31;7391872;19;20440;-60
2022/11/26 04:19:42;;;;;;;70.43;13.17;;;;;;;3.44;100.00;102059.25;7393294;19;20410;-60
2022/11/26 04:22:11;;;;;;;103.23;14.17;;;;;;;3.47;100.00;102047.66;7390593;19;20419;-61
2022/11/26 04:24:41;;;;;;;52.33;10.33;;;;;;;3.35;100.00;102061.84;7394276;19;20376;-58
2022/11/26 04:27:10;;;;;;;52.30;11.67;;;;;;;3.32;100.00;102065.00;7391630;19;20410;-61
2022/11/26 04:29:40;;;;;;;41.07;11.43;;;;;;;3.35;100.00;102065.28;7393291;19;20409;-62
2022/11/26 04:32:09;;;;;;;43.63;11.53;;;;;;;3.36;100.00;102063.63;7391201;19;20799;-61
2022/11/26 04:34:41;;;;;;;49.10;11.73;;;;;;;3.33;100.00;102077.00;7393502;19;20390;-59
2022/11/26 04:37:11;;;;;;;60.97;12.93;;;;;;;3.32;100.00;102077.78;7383985;19;21064;-61
2022/11/26 04:39:40;;;;;;;76.90;14.20;;;;;;;3.30;100.00;102081.84;7392372;19;20402;-60
2022/11/26 04:42:10;;;;;;;99.87;13.37;;;;;;;3.33;100.00;102082.09;7393613;19;20827;-57
2022/11/26 04:44:39;;;;;;;76.73;12.50;;;;;;;3.33;100.00;102088.88;7393619;19;20824;-60
2022/11/26 04:47:09;;;;;;;66.47;14.67;;;;;;;3.28;100.00;102093.53;7391939;19;20439;-61
2022/11/26 04:49:38;;;;;;;90.00;14.37;;;;;;;3.36;100.00;102086.59;7392384;19;20407;-61
2022/11/26 04:52:11;;;;;;;59.90;13.67;;;;;;;3.40;100.00;102095.44;7391104;19;20874;-61
2022/11/26 04:54:40;;;;;;;91.10;13.37;;;;;;;3.31;100.00;102101.50;7392904;19;20419;-60
2022/11/26 04:57:09;;;;;;;67.00;12.13;;;;;;;3.37;100.00;102099.50;7390246;19;20445;-61
2022/11/26 04:59:39;;;;;;;78.83;13.90;;;;;;;3.36;100.00;102095.16;7391360;19;20396;-58
2022/11/26 05:02:09;;;;;;;101.33;15.07;;;;;;;3.38;100.00;102088.53;7390762;19;20415;-58
2022/11/26 05:04:41;;;;;;;62.07;13.37;;;;;;;3.36;100.00;102082.41;7392846;19;20463;-59
2022/11/26 05:07:13;;;;;;;104.70;16.73;;;;;;;3.39;100.00;102081.81;7387161;19;20473;-59
2022/11/26 05:09:42;;;;;;;53.77;12.77;;;;;;;3.35;100.00;102074.59;7391697;19;20388;-62
2022/11/26 05:12:12;;;;;;;61.23;13.13;;;;;;;3.38;100.00;102085.06;7390707;19;20427;-58
2022/11/26 05:14:42;;;;;;;59.30;14.33;;;;;;;3.33;100.00;102082.09;7392421;19;20363;-60
2022/11/26 05:17:11;;;;;;;88.50;13.77;;;;;;;3.36;100.00;102067.09;7390574;19;20753;-58
2022/11/26 05:19:41;;;;;;;61.27;14.93;;;;;;;3.34;100.00;102053.28;7391746;19;20418;-58
2022/11/26 05:22:13;;;;;;;79.90;13.67;;;;;;;3.37;100.00;102056.13;7390195;19;20411;-60
2022/11/26 05:24:42;;;;;;;89.40;14.57;;;;;;;3.37;100.00;102040.81;7392448;19;20407;-58
2022/11/26 05:27:12;;;;;;;73.40;16.10;;;;;;;3.37;100.00;102040.81;7390291;19;20948;-60
2022/11/26 05:29:41;;;;;;;65.10;15.00;;;;;;;3.40;100.00;102036.75;7390912;19;20804;-57
2022/11/26 05:32:10;;;;;;;54.37;15.97;;;;;;;3.42;100.00;102031.03;7390002;19;20403;-58
2022/11/26 05:34:40;;;;;;;69.43;16.80;;;;;;;3.42;100.00;102025.94;7393141;19;20396;-60
2022/11/26 05:37:12;;;;;;;91.17;14.50;;;;;;;3.52;100.00;102012.34;7389117;19;20432;-56
2022/11/26 05:39:42;;;;;;;76.30;14.70;;;;;;;3.51;100.00;102001.25;7391081;19;20745;-58
2022/11/26 05:42:14;;;;;;;94.73;16.97;;;;;;;3.54;100.00;101995.50;7388702;19;20422;-57
2022/11/26 05:44:43;;;;;;;69.43;13.53;;;;;;;3.52;100.00;101991.94;7391282;19;20375;-59
2022/11/26 05:47:13;;;;;;;51.03;13.07;;;;;;;3.53;100.00;101992.84;7389486;19;20403;-54
2022/11/26 05:49:42;;;;;;;114.73;16.30;;;;;;;3.58;100.00;101992.47;7390720;19;20415;-61
2022/11/26 05:52:14;;;;;;;52.13;14.50;;;;;;;3.56;100.00;101991.47;7389763;19;20948;-60
2022/11/26 05:54:44;;;;;;;67.07;15.10;;;;;;;3.56;100.00;101988.91;7391208;19;20415;-61
2022/11/26 05:57:13;;;;;;;62.53;15.60;;;;;;;3.59;100.00;101980.63;7389771;19;20422;-61
2022/11/26 05:59:43;;;;;;;70.43;15.27;;;;;;;3.60;100.00;101974.75;7389685;19;21350;-61
2022/11/26 06:02:12;;;;;;;110.43;17.80;;;;;;;3.62;100.00;101966.47;7389637;19;20449;-62
2022/11/26 06:04:42;;;;;;;82.30;17.20;;;;;;;3.65;100.00;101964.19;7390783;19;20475;-61
2022/11/26 06:07:14;;;;;;;56.37;16.10;;;;;;;3.70;100.00;101966.25;7388628;19;20392;-61
2022/11/26 06:09:43;;;;;;;49.47;15.50;;;;;;;3.71;100.00;101965.50;7390387;19;20390;-59
2022/11/26 06:12:14;;;;;;;74.67;17.27;;;;;;;3.67;100.00;101964.34;7388593;19;20411;-61
2022/11/26 06:14:43;;;;;;;60.73;16.33;;;;;;;3.67;100.00;101966.88;7391014;19;20391;-60
2022/11/26 06:17:14;;;;;;;62.93;16.03;;;;;;;3.70;100.00;101961.16;7389337;19;20775;-61
2022/11/26 06:19:43;;;;;;;70.10;18.53;;;;;;;3.73;100.00;101961.41;7390682;19;20407;-61
2022/11/26 06:22:15;;;;;;;50.73;15.07;;;;;;;3.70;100.00;101961.16;7388857;19;20407;-62
2022/11/26 06:24:45;;;;;;;68.70;15.60;;;;;;;3.67;100.00;101958.31;7390789;19;20418;-58
2022/11/26 06:27:14;;;;;;;56.93;15.60;;;;;;;3.70;100.00;101961.16;7389421;19;20407;-58
2022/11/26 06:29:44;;;;;;;55.87;16.87;;;;;;;3.75;100.00;101962.47;7389411;19;20391;-60
2022/11/26 06:32:13;;;;;;;64.23;16.07;;;;;;;3.73;100.00;101967.44;7388180;19;20418;-58
2022/11/26 06:34:43;;;;;;;52.33;15.40;;;;;;;3.72;100.00;101967.28;7390079;19;20387;-61
2022/11/26 06:37:17;;;;;;;60.07;14.80;;;;;;;3.72;100.00;101963.09;7388294;19;20428;-61
2022/11/26 06:39:47;;;;;;;52.57;15.90;;;;;;;3.75;100.00;101971.00;7388007;19;20883;-62
2022/11/26 06:42:16;;;;;;;92.63;18.77;;;;;;;3.80;100.00;101967.97;7390001;19;20964;-61
2022/11/26 06:44:45;;;;;;;36.87;15.10;;;;;;;3.76;100.00;101972.78;7393907;19;20387;-60
2022/11/26 06:47:16;;;;;;;66.77;16.63;;;;;;;3.74;100.00;101964.13;7396445;19;20443;-60
2022/11/26 06:49:45;;;;;;;47.43;16.93;;;;;;;3.73;100.00;101962.31;7396844;19;20391;-61
2022/11/26 06:52:17;;;;;;;53.93;17.17;;;;;;;3.76;100.00;101966.81;7395231;19;20984;-59
2022/11/26 06:54:47;;;;;;;41.90;16.90;;;;;;;3.75;100.00;101965.03;7396999;19;20991;-61
2022/11/26 06:57:16;;;;;;;65.37;17.07;;;;;;;3.75;100.00;101971.00;7392430;19;20417;-56
2022/11/26 06:59:46;;;;;;;59.27;18.00;;;;;;;3.74;100.00;101973.44;7393541;19;20399;-61
2022/11/26 07:02:15;;;;;;;53.20;16.60;;;;;;;3.74;100.00;101974.31;7393204;19;20437;-58
2022/11/26 07:04:45;;;;;;;65.30;17.30;;;;;;;3.74;100.00;101978.56;7396422;19;20756;-58
2022/11/26 07:07:14;;;;;;;77.33;18.07;;;;;;;3.77;100.00;101978.81;7394362;19;20415;-59
2022/11/26 07:09:46;;;;;;;70.63;18.97;;;;;;;3.83;100.00;101979.34;7395959;19;21237;-59
2022/11/26 07:12:16;;;;;;;61.97;18.27;;;;;;;3.77;100.00;101992.47;7394552;19;20741;-59
2022/11/26 07:14:45;;;;;;;62.43;17.67;;;;;;;3.80;100.00;101989.31;7396356;19;20388;-60
2022/11/26 07:17:15;;;;;;;129.83;21.07;;;;;;;3.79;100.00;101992.59;7394444;19;20427;-57
2022/11/26 07:19:44;;;;;;;57.73;18.30;;;;;;;3.82;100.00;101987.78;7393672;19;20788;-60
2022/11/26 07:22:13;;;;;;;60.83;18.13;;;;;;;3.76;100.00;101987.22;7394287;19;20395;-57
2022/11/26 07:24:45;;;;;;;57.67;23.00;;;;;;;3.76;100.00;101997.44;7396222;19;20383;-56
2022/11/26 07:27:15;;;;;;;47.90;16.87;;;;;;;3.73;100.00;102005.72;7393916;19;20411;-59
2022/11/26 07:29:44;;;;;;;54.70;17.57;;;;;;;3.82;100.00;102012.41;7395388;19;20400;-59
2022/11/26 07:32:14;;;;;;;57.00;18.97;;;;;;;3.82;100.00;102007.28;7393581;19;20395;-60
2022/11/26 07:34:43;;;;;;;64.07;17.20;;;;;;;3.77;100.00;102020.56;7395617;19;20402;-58
2022/11/26 07:37:12;;;;;;;63.87;18.17;;;;;;;3.71;100.00;102029.31;7397965;19;20435;-59
2022/11/26 07:39:42;;;;;;;45.53;18.53;;;;;;;3.77;100.00;102029.88;7393517;19;20387;-60
2022/11/26 07:42:14;;;;;;;43.33;17.07;;;;;;;3.78;100.00;102021.44;7371304;19;20427;-60
2022/11/26 07:44:44;;;;;;;41.47;18.17;;;;;;;3.82;100.00;102020.97;7393757;19;20384;-60
2022/11/26 07:47:13;;;;;;;56.70;18.57;;;;;;;3.75;100.00;102018.63;7392897;19;20785;-57
2022/11/26 07:49:43;;;;;;;40.27;15.90;;;;;;;3.81;100.00;102019.19;7394349;19;20412;-59
2022/11/26 07:52:12;;;;;;;43.43;18.40;;;;;;;3.86;100.00;102027.25;7395010;19;20427;-61
2022/11/26 07:54:42;;;;;;;48.53;18.33;;;;;;;3.87;100.00;102023.94;7394537;19;20383;-57
2022/11/26 07:57:14;;;;;;;51.60;19.10;;;;;;;3.87;100.00;102027.41;7393036;19;20435;-61
2022/11/26 07:59:43;;;;;;;47.67;19.10;;;;;;;3.89;100.00;102035.16;7391779;19;20396;-60
2022/11/26 08:02:16;;;;;;;50.77;18.70;;;;;;;3.95;100.00;102039.94;7388218;19;20419;-60
2022/11/26 08:04:45;;;;;;;59.10;19.13;;;;;;;3.91;100.00;102043.88;7395633;19;20399;-58
2022/11/26 08:07:15;;;;;;;48.03;18.07;;;;;;;3.91;100.00;102043.88;7390807;19;20806;-56
2022/11/26 08:09:54;;;;;;;53.83;19.47;;;;;;;3.92;100.00;102051.69;7397595;19;20957;-57
2022/11/26 08:12:26;;;;;;;44.00;20.50;;;;;;;3.97;100.00;102053.75;7390553;19;20766;-57
2022/11/26 08:14:55;;;;;;;51.20;18.27;;;;;;;3.94;100.00;102066.25;7393949;19;20909;-58
2022/11/26 08:17:28;;;;;;;50.73;18.97;;;;;;;3.91;100.00;102070.31;7390012;19;20822;-58
2022/11/26 08:19:57;;;;;;;66.13;20.10;;;;;;;4.02;100.00;102065.28;7391511;19;20929;-57
2022/11/26 08:22:27;;;;;;;62.63;21.40;;;;;;;4.06;100.00;102067.34;7390884;19;20415;-59
2022/11/26 08:24:56;;;;;;;78.43;20.53;;;;;;;4.14;100.00;102068.91;7388855;19;20988;-59
2022/11/26 08:27:28;;;;;;;52.63;20.57;;;;;;;4.07;100.00;102070.78;7391351;19;20972;-60
2022/11/26 08:29:57;;;;;;;58.87;21.30;;;;;;;4.01;100.00;102076.25;7393688;19;20391;-58
2022/11/26 08:32:27;;;;;;;46.70;20.83;;;;;;;4.03;100.00;102087.50;7391377;19;20415;-59
2022/11/26 08:34:56;;;;;;;48.80;19.03;;;;;;;4.04;100.00;102087.63;7393867;19;20414;-60
2022/11/26 08:37:26;;;;;;;52.93;19.50;;;;;;;3.98;100.00;102091.28;7389904;19;20407;-62
2022/11/26 08:39:55;;;;;;;50.43;20.43;;;;;;;4.09;100.00;102090.59;7392048;19;20398;-61
2022/11/26 08:42:27;;;;;;;48.30;20.80;;;;;;;4.11;100.00;102101.84;7391017;19;20414;-61
2022/11/26 08:44:57;;;;;;;62.73;25.70;;;;;;;4.22;100.00;102101.91;7393519;19;20399;-60
2022/11/26 08:47:27;;;;;;;53.40;20.10;;;;;;;4.18;100.00;102106.75;7391060;19;20403;-61
2022/11/26 08:49:58;;;;;;;48.20;22.00;;;;;;;4.12;100.00;102116.44;7395963;19;20382;-62
2022/11/26 08:52:28;;;;;;;42.60;19.80;;;;;;;4.12;100.00;102129.22;7390498;19;20444;-61
2022/11/26 08:54:57;;;;;;;74.87;28.00;;;;;;;4.13;100.00;102136.09;7397110;19;20415;-59
2022/11/26 08:57:32;;;;;;;49.33;20.20;;;;;;;4.15;100.00;102147.34;7390187;19;20415;-58
2022/11/26 09:00:02;;;;;;;50.90;20.67;;;;;;;4.19;100.00;102157.09;7393430;19;20411;-60
2022/11/26 09:02:32;;;;;;;82.57;34.13;;;;;;;4.28;100.00;102156.13;7389926;19;20434;-60
2022/11/26 09:05:01;;;;;;;53.93;19.53;;;;;;;4.24;100.00;102167.72;7392958;19;20406;-59
2022/11/26 09:07:31;;;;;;;49.57;21.73;;;;;;;4.28;100.00;102174.00;7385996;19;20434;-60
2022/11/26 09:10:01;;;;;;;47.47;21.40;;;;;;;4.33;100.00;102188.09;7397500;19;20944;-61
2022/11/26 09:12:33;;;;;;;45.00;19.87;;;;;;;4.33;100.00;102204.31;7390064;19;20434;-57
2022/11/26 09:15:02;;;;;;;45.33;19.60;;;;;;;4.35;100.00;102226.59;7392183;19;20427;-60
2022/11/26 09:17:32;;;;;;;38.97;19.00;;;;;;;4.33;100.00;102249.44;7388807;19;20997;-58
2022/11/26 09:20:01;;;;;;;40.50;19.10;;;;;;;4.31;100.00;102276.50;7390923;19;20921;-61
2022/11/26 09:22:31;;;;;;;43.33;19.70;;;;;;;4.28;100.00;102283.88;7388616;19;20457;-59
2022/11/26 09:25:00;;;;;;;57.33;21.30;;;;;;;4.30;100.00;102302.81;7392498;19;20400;-58
2022/11/26 09:27:32;;;;;;;41.10;20.83;;;;;;;4.25;100.00;102304.06;7389122;19;20440;-57
2022/11/26 09:30:02;;;;;;;55.07;23.07;;;;;;;4.37;100.00;102314.50;7391551;19;20403;-60
2022/11/26 09:32:33;;;;;;;45.70;19.33;;;;;;;4.38;100.00;102323.97;7389113;19;20416;-59
2022/11/26 09:35:02;;;;;;;52.23;22.80;;;;;;;4.44;100.00;102324.53;7389617;19;20392;-58
2022/11/26 09:37:33;;;;;;;67.23;28.03;;;;;;;4.53;100.00;102332.16;7390056;19;20398;-58
2022/11/26 09:40:03;;;;;;;46.53;21.13;;;;;;;4.51;100.00;102331.13;7390739;19;20391;-59
2022/11/26 09:42:45;;;;;;;49.87;20.93;;;;;;;4.49;100.00;102340.28;7387841;19;20402;-57
2022/11/26 09:45:28;;;;;;;43.90;20.53;;;;;;;4.50;100.00;102340.44;7392153;19;20749;-58
2022/11/26 09:47:57;;;;;;;46.17;19.93;;;;;;;4.52;100.00;102348.25;7385607;19;20423;-60
2022/11/26 09:50:30;;;;;;;43.63;19.83;;;;;;;4.56;100.00;102355.44;7390511;19;20941;-65
2022/11/26 09:53:03;;;;;;;59.10;23.60;;;;;;;4.55;100.00;102358.72;7386911;19;20415;-56
2022/11/26 09:55:37;;;;;;;57.67;21.47;;;;;;;4.59;100.00;102356.63;7391154;19;20932;-61
2022/11/26 09:58:14;;;;;;;56.60;20.80;;;;;;;4.56;100.00;102345.22;7387556;19;20429;-60
2022/11/26 10:03:23;;;;;;;49.90;21.30;;;;;;;4.56;100.00;102300.09;7250260;19;2900481;-55
2022/11/26 10:05:59;;;;;;;53.97;21.87;;;;;;;4.55;100.00;102294.81;7422638;19;20142;-58
2022/11/26 10:08:49;;;;;;;58.87;22.90;;;;;;;4.60;100.00;102288.47;7426685;19;20410;-56
2022/11/26 10:11:25;;;;;;;41.53;17.50;;;;;;;4.54;100.00;102301.63;7422703;19;20509;-55
2022/11/26 10:14:01;;;;;;;52.90;22.40;;;;;;;4.61;100.00;102297.06;7427450;19;20374;-58
2022/11/26 10:16:37;;;;;;;56.10;19.63;;;;;;;4.61;100.00;102291.94;7427194;19;20416;-57
2022/11/26 10:19:16;;;;;;;60.80;24.90;;;;;;;4.65;100.00;102283.78;7427126;19;20413;-59
2022/11/26 10:21:47;;;;;;;50.93;22.77;;;;;;;4.69;100.00;102271.44;7423037;19;20950;-59
2022/11/26 10:24:35;;;;;;;54.40;20.87;;;;;;;4.75;100.00;102273.63;7426865;19;20423;-59
2022/11/26 10:27:11;;;;;;;53.07;18.80;;;;;;;4.73;100.00;102272.59;7424212;19;20418;-56
2022/11/26 10:29:43;;;;;;;52.00;20.80;;;;;;;4.63;100.00;102263.19;7426625;19;20394;-57
2022/11/26 10:32:16;;;;;;;50.40;21.23;;;;;;;4.67;100.00;102249.91;7421003;19;20445;-54
2022/11/26 10:34:52;;;;;;;42.50;21.00;;;;;;;4.76;100.00;102248.97;7426214;19;20919;-57
2022/11/26 10:37:22;;;;;;;78.20;34.93;;;;;;;5.07;100.00;102234.66;7421699;19;20433;-59
2022/11/26 10:40:01;;;;;;;64.10;23.43;;;;;;;4.96;100.00;102241.38;7427480;19;20424;-55
2022/11/26 10:42:42;;;;;;;51.37;21.00;;;;;;;4.80;100.00;102238.22;7420439;19;20460;-57
2022/11/26 10:45:19;;;;;;;60.93;23.77;;;;;;;4.90;100.00;102239.94;7427250;19;20411;-59
2022/11/26 10:47:48;;;;;;;49.00;21.00;;;;;;;4.92;100.00;102238.44;7425043;19;20967;-57
2022/11/26 10:50:25;;;;;;;71.73;20.90;;;;;;;4.88;100.00;102244.03;7429949;19;20418;-56
2022/11/26 10:53:21;;;;;;;46.03;16.40;;;;;;;4.64;100.00;102251.28;7421026;19;20459;-56
2022/11/26 10:55:50;;;;;;;47.53;19.60;;;;;;;4.58;100.00;102244.88;7422960;19;20404;-58
2022/11/26 10:58:22;;;;;;;51.17;19.80;;;;;;;4.67;100.00;102249.91;7425071;19;20386;-53
2022/11/26 11:01:03;;;;;;;61.40;21.03;;;;;;;4.63;100.00;102246.94;7425773;19;20406;-56
2022/11/26 11:03:34;;;;;;;58.57;19.50;;;;;;;4.61;100.00;102246.81;7426023;19;20443;-58
2022/11/26 11:06:39;;;;;;;37.50;17.53;;;;;;;4.60;100.00;102242.44;7422848;19;20414;-59
2022/11/26 11:09:29;;;;;;;50.73;21.30;;;;;;;4.67;100.00;102246.47;7424937;19;20395;-60
2022/11/26 11:12:25;;;;;;;49.23;20.20;;;;;;;4.57;100.00;102232.84;7419929;19;20438;-57
2022/11/26 11:14:55;;;;;;;44.43;19.80;;;;;;;4.57;100.00;102240.53;7393859;19;20395;-57
2022/11/26 11:17:36;;;;;;;53.07;17.40;;;;;;;4.54;100.00;102235.16;7394277;19;20414;-59
2022/11/26 11:20:26;;;;;;;67.73;26.17;;;;;;;4.47;100.00;102240.47;7396108;19;20394;-60
2022/11/26 11:23:05;;;;;;;67.53;23.00;;;;;;;4.50;100.00;102244.97;7390258;19;20445;-56
2022/11/26 11:25:35;;;;;;;43.97;17.87;;;;;;;4.48;100.00;102244.81;7396422;19;20391;-60
2022/11/26 11:28:08;;;;;;;84.00;30.70;;;;;;;4.56;100.00;102248.06;7394439;19;21038;-58
2022/11/26 11:30:41;;;;;;;42.77;18.73;;;;;;;4.54;100.00;102247.94;7396207;19;20371;-57
2022/11/26 11:33:14;;;;;;;47.80;19.90;;;;;;;4.55;100.00;102241.13;7390305;19;20992;-58